Mmabatho International Airport

Airport
ICAO code: 
FAMM
IATA Code: 
MBD
Summary
ICAO Region: 
AFI
Territory: 
Location: 
, North-West
Serving: 
Mafeking
Elevation: 
4181 ft
Coordinates: 
Aerial View: 
25° 47' 54.398" S, 25° 32' 52.901" E
Metar
Observation
FAMM 291700Z 31002KT 9999 FEW040CB BKN100 28/13 Q1016 NOSIG
Station
Mafikeng Intl. Ad
Date/Time
2021-11-29 17:00:00
Wind direction
310°
Wind speed
02 kts
Lowest cloud amount
few clouds
Temperature
28°C
Dew point
13°C
Humidity
39%
QNH
1016 hPa
Weather condition
n/a

Runways

Designator Length Width Surface Rops
4/22 4620 45 ASP Yes/Yes
Airport map: 
Aerial View: 

SKYbrary Partners:

Safety knowledge contributed by: